Time;durP1;ratioP1;P1;durP2;ratioP2;P2;SDS_P1;SDS_P2;PMS_P1;PMS_P2;Temp;Humidity;BMP_temperature;BMP_pressure;BME280_temperature;BME280_humidity;BME280_pressure;Samples;Min_cycle;Max_cycle;Signal;HPM_P1;HPM_P2
2023/10/29 00:01:48;;;;;;;7.10;4.97;;;11.40;99.90;;;;;;4986154;28;20054;-83
2023/10/29 00:04:13;;;;;;;9.05;4.72;;;11.40;99.90;;;;;;4994178;28;20443;-83
2023/10/29 00:06:39;;;;;;;8.13;4.93;;;11.40;99.90;;;;;;4988322;28;20076;-83
2023/10/29 00:09:04;;;;;;;9.48;5.47;;;11.40;99.90;;;;;;5007290;28;20048;-84
2023/10/29 00:11:33;;;;;;;9.93;5.68;;;11.40;99.90;;;;;;5002191;28;20489;-84
2023/10/29 00:13:59;;;;;;;11.32;5.88;;;11.40;99.90;;;;;;4994474;28;20045;-83
2023/10/29 00:16:25;;;;;;;8.95;5.93;;;11.50;99.90;;;;;;4988944;28;20043;-78
2023/10/29 00:18:51;;;;;;;8.15;6.38;;;11.50;99.90;;;;;;5002350;28;20424;-84
2023/10/29 00:21:16;;;;;;;8.43;5.70;;;11.50;99.90;;;;;;5000616;28;20485;-84
2023/10/29 00:23:42;;;;;;;8.70;5.80;;;11.50;99.90;;;;;;4992695;28;20081;-84
2023/10/29 00:26:08;;;;;;;7.38;5.63;;;11.50;99.90;;;;;;5000095;28;20078;-84
2023/10/29 00:28:33;;;;;;;7.75;5.68;;;11.50;99.90;;;;;;5013270;28;20050;-84
2023/10/29 00:30:59;;;;;;;7.55;5.90;;;11.50;99.90;;;;;;5116466;27;20045;-84
2023/10/29 00:33:25;;;;;;;6.10;5.30;;;11.50;99.90;;;;;;5010172;28;20086;-84
2023/10/29 00:35:51;;;;;;;7.72;5.13;;;11.50;99.90;;;;;;4999555;28;20424;-84
2023/10/29 00:38:16;;;;;;;6.15;5.53;;;11.50;99.90;;;;;;5119904;27;20049;-84
2023/10/29 00:40:42;;;;;;;7.88;5.97;;;11.50;99.90;;;;;;4989368;28;20038;-84
2023/10/29 00:43:15;;;;;;;7.20;5.68;;;11.60;99.90;;;;;;5014522;28;20038;-84
2023/10/29 00:45:41;;;;;;;7.15;4.68;;;11.50;99.90;;;;;;5000910;28;20074;-84
2023/10/29 00:48:10;;;;;;;6.50;5.60;;;11.50;99.90;;;;;;5005239;28;20054;-84
2023/10/29 00:50:35;;;;;;;8.55;6.03;;;11.50;99.90;;;;;;4991035;28;20649;-84
2023/10/29 00:53:01;;;;;;;7.75;5.63;;;11.50;99.90;;;;;;5001971;28;20067;-84
2023/10/29 00:55:27;;;;;;;7.60;5.68;;;11.50;99.90;;;;;;5000561;28;20619;-84
2023/10/29 00:57:53;;;;;;;6.65;5.95;;;11.60;99.90;;;;;;5102319;27;20042;-84
2023/10/29 01:00:21;;;;;;;8.43;6.05;;;11.60;99.90;;;;;;5011291;28;20045;-84
2023/10/29 01:02:46;;;;;;;;;;;11.60;99.90;;;;;;4993992;28;20050;-84
2023/10/29 01:05:12;;;;;;;7.68;5.45;;;11.60;99.90;;;;;;5011900;28;20425;-84
2023/10/29 01:07:38;;;;;;;7.60;6.07;;;11.60;99.90;;;;;;5110660;27;20112;-84
2023/10/29 01:10:04;;;;;;;7.55;5.75;;;11.60;99.90;;;;;;5024602;28;20059;-84
2023/10/29 01:12:30;;;;;;;5.78;4.65;;;11.60;99.90;;;;;;5002617;28;20547;-84
2023/10/29 01:14:56;;;;;;;7.43;5.65;;;11.70;99.90;;;;;;4993260;28;20074;-84
2023/10/29 01:17:23;;;;;;;7.00;5.60;;;11.70;99.90;;;;;;5007119;28;20444;-84
2023/10/29 01:19:49;;;;;;;6.82;4.90;;;11.70;99.90;;;;;;5012082;28;20046;-84
2023/10/29 01:22:16;;;;;;;8.68;5.80;;;11.70;99.90;;;;;;4993383;28;20046;-84
2023/10/29 01:24:43;;;;;;;10.63;5.00;;;11.70;99.90;;;;;;5015842;28;20091;-84
2023/10/29 01:27:10;;;;;;;6.72;4.78;;;11.70;99.90;;;;;;4999805;28;20087;-84
2023/10/29 01:29:35;;;;;;;5.55;4.35;;;11.70;99.90;;;;;;5000328;28;20499;-84
2023/10/29 01:32:01;;;;;;;7.93;5.20;;;11.80;99.90;;;;;;5010041;28;20038;-84
2023/10/29 01:34:27;;;;;;;6.38;4.50;;;11.80;99.90;;;;;;4999795;28;20050;-84
2023/10/29 01:36:52;;;;;;;6.40;4.25;;;11.80;99.90;;;;;;4992408;28;20061;-84
2023/10/29 01:39:18;;;;;;;6.18;4.57;;;11.80;99.90;;;;;;4995615;28;20053;-84
2023/10/29 01:41:44;;;;;;;7.03;4.38;;;11.90;99.90;;;;;;5003835;28;20062;-84
2023/10/29 01:44:10;;;;;;;6.63;4.20;;;11.90;99.90;;;;;;5006430;28;20128;-84
2023/10/29 01:46:35;;;;;;;7.55;4.38;;;11.90;99.90;;;;;;4993691;28;20092;-84
2023/10/29 01:49:04;;;;;;;7.68;4.93;;;11.80;99.90;;;;;;5003171;28;20049;-84
2023/10/29 01:51:29;;;;;;;6.18;4.15;;;11.90;99.90;;;;;;5008486;28;20095;-84
2023/10/29 01:53:55;;;;;;;5.57;4.00;;;11.90;99.90;;;;;;4991725;28;20050;-84
2023/10/29 01:56:20;;;;;;;6.38;4.30;;;12.00;99.90;;;;;;4989499;28;20041;-84
2023/10/29 01:58:46;;;;;;;5.43;3.92;;;11.90;99.90;;;;;;5001134;28;20275;-84
2023/10/29 02:01:12;;;;;;;6.10;4.00;;;12.00;99.90;;;;;;5013655;28;20480;-84
2023/10/29 02:03:41;;;;;;;6.00;4.05;;;12.00;99.90;;;;;;5003106;28;20066;-84
2023/10/29 02:06:19;;;;;;;6.03;3.47;;;12.00;99.90;;;;;;4999303;28;20046;-84
2023/10/29 02:08:45;;;;;;;5.68;2.90;;;12.00;99.90;;;;;;4998604;28;20041;-83
2023/10/29 02:11:11;;;;;;;4.53;3.05;;;12.00;99.90;;;;;;5007332;28;20584;-84
2023/10/29 02:13:37;;;;;;;5.88;3.55;;;12.00;99.90;;;;;;5102110;27;20054;-84
2023/10/29 02:16:03;;;;;;;7.55;3.60;;;12.00;99.90;;;;;;4995367;28;20485;-84
2023/10/29 02:18:29;;;;;;;8.02;3.30;;;12.00;99.90;;;;;;5097646;27;20050;-84
2023/10/29 02:20:55;;;;;;;8.05;3.28;;;12.10;99.90;;;;;;5003644;28;20605;-84
2023/10/29 02:23:21;;;;;;;5.70;2.83;;;12.00;99.90;;;;;;4991263;28;20057;-84
2023/10/29 02:25:47;;;;;;;6.35;3.03;;;12.00;99.90;;;;;;4999047;28;20269;-84
2023/10/29 02:28:12;;;;;;;6.50;3.10;;;12.00;99.90;;;;;;5003436;28;20042;-84
2023/10/29 02:30:38;;;;;;;5.40;3.20;;;12.10;99.90;;;;;;5000743;28;20046;-84
2023/10/29 02:33:04;;;;;;;4.60;2.88;;;12.00;99.90;;;;;;5107063;27;20042;-84
2023/10/29 02:35:29;;;;;;;5.35;2.95;;;12.10;99.90;;;;;;4998443;28;20045;-83
2023/10/29 02:37:55;;;;;;;6.25;3.35;;;12.00;99.90;;;;;;5004193;28;20134;-84
2023/10/29 02:40:21;;;;;;;4.95;2.70;;;12.00;99.90;;;;;;4995494;28;20084;-84
2023/10/29 02:42:46;;;;;;;6.13;2.90;;;12.10;99.90;;;;;;4993422;28;20117;-84
2023/10/29 02:45:12;;;;;;;3.35;2.42;;;12.10;99.90;;;;;;5009557;28;20048;-84
2023/10/29 02:47:37;;;;;;;6.05;2.67;;;12.10;99.90;;;;;;5007412;28;20057;-84
2023/10/29 02:50:04;;;;;;;4.82;2.65;;;12.10;99.90;;;;;;4999008;28;20052;-84
2023/10/29 02:52:32;;;;;;;5.45;2.45;;;12.10;99.90;;;;;;4988280;28;20051;-84
2023/10/29 02:54:58;;;;;;;5.72;2.47;;;12.10;99.90;;;;;;4999142;28;20044;-84
2023/10/29 02:57:24;;;;;;;4.70;2.85;;;12.20;99.90;;;;;;4990379;28;20046;-84
2023/10/29 02:59:49;;;;;;;4.75;2.22;;;12.10;99.90;;;;;;4999347;28;20068;-84
2023/10/29 03:02:15;;;;;;;5.78;2.50;;;12.20;99.90;;;;;;5002143;28;20095;-84
2023/10/29 03:04:40;;;;;;;4.00;2.38;;;12.20;99.90;;;;;;4990203;28;20047;-84
2023/10/29 03:07:06;;;;;;;5.63;2.60;;;12.20;99.90;;;;;;4998721;28;20883;-84
2023/10/29 03:09:32;;;;;;;6.13;2.20;;;12.20;99.90;;;;;;4991576;28;20057;-84
2023/10/29 03:11:57;;;;;;;5.53;2.22;;;12.20;99.90;;;;;;4998488;28;20050;-84
2023/10/29 03:14:23;;;;;;;6.47;2.42;;;12.30;99.90;;;;;;4997733;28;20046;-84
2023/10/29 03:16:49;;;;;;;4.45;1.95;;;12.30;99.90;;;;;;4989632;28;20156;-84
2023/10/29 03:19:14;;;;;;;4.95;2.20;;;12.30;99.90;;;;;;5089953;27;20049;-84
2023/10/29 03:21:40;;;;;;;6.47;2.10;;;12.30;99.90;;;;;;4995232;28;20055;-84
2023/10/29 03:24:06;;;;;;;4.90;2.30;;;12.30;99.90;;;;;;4998277;28;20111;-84
2023/10/29 03:26:31;;;;;;;4.72;2.17;;;12.30;99.90;;;;;;4997192;28;20129;-84
2023/10/29 03:28:57;;;;;;;4.15;1.90;;;12.40;99.90;;;;;;4992597;28;20073;-84
2023/10/29 03:31:23;;;;;;;6.40;2.25;;;12.40;99.90;;;;;;4992224;28;20061;-84
2023/10/29 03:33:49;;;;;;;4.00;1.95;;;12.40;99.90;;;;;;4989031;28;20057;-83
2023/10/29 03:36:15;;;;;;;5.07;1.85;;;12.40;99.90;;;;;;5001974;28;20053;-83
2023/10/29 03:38:40;;;;;;;3.63;1.95;;;12.40;99.90;;;;;;5006334;28;20056;-84
2023/10/29 03:41:06;;;;;;;5.03;2.00;;;12.40;99.90;;;;;;4992799;28;20054;-84
2023/10/29 03:43:32;;;;;;;3.95;1.95;;;12.50;99.90;;;;;;4989868;28;20046;-85
2023/10/29 03:45:59;;;;;;;4.32;1.92;;;12.40;99.90;;;;;;4991789;28;20486;-83
2023/10/29 03:48:25;;;;;;;3.70;1.80;;;12.40;99.90;;;;;;4991105;28;20425;-84
2023/10/29 03:50:51;;;;;;;8.40;1.90;;;12.50;99.90;;;;;;5007019;28;20053;-84
2023/10/29 03:53:16;;;;;;;5.47;1.95;;;12.50;99.90;;;;;;5015792;28;20045;-84
2023/10/29 03:55:42;;;;;;;5.88;2.10;;;12.50;99.90;;;;;;4993416;28;20066;-84
2023/10/29 03:58:08;;;;;;;4.68;2.03;;;12.50;99.90;;;;;;4988329;28;20230;-83
2023/10/29 04:00:33;;;;;;;4.60;2.00;;;12.50;99.90;;;;;;4992831;28;20129;-84
2023/10/29 04:02:59;;;;;;;6.57;1.80;;;12.50;99.90;;;;;;4989588;28;20046;-84
2023/10/29 04:05:25;;;;;;;4.00;1.80;;;12.50;99.90;;;;;;5008081;28;20570;-84
2023/10/29 04:07:50;;;;;;;4.55;1.60;;;12.60;99.90;;;;;;4997067;28;21749;-84
2023/10/29 04:10:16;;;;;;;3.05;1.80;;;12.60;99.90;;;;;;4996697;28;20126;-84
2023/10/29 04:12:41;;;;;;;5.57;1.98;;;12.60;99.90;;;;;;5003889;28;20490;-83
2023/10/29 04:15:08;;;;;;;5.63;1.90;;;12.60;99.90;;;;;;4992589;28;20046;-84
2023/10/29 04:17:34;;;;;;;6.05;2.00;;;12.60;99.90;;;;;;4994238;28;20076;-84
2023/10/29 04:20:00;;;;;;;4.38;1.45;;;12.60;99.90;;;;;;4991675;28;20062;-84
2023/10/29 04:22:26;;;;;;;7.28;1.85;;;12.70;99.90;;;;;;4994781;28;20049;-83
2023/10/29 04:24:52;;;;;;;6.90;1.77;;;12.60;99.90;;;;;;4993782;28;20054;-84
2023/10/29 04:27:17;;;;;;;4.63;1.75;;;12.70;99.90;;;;;;4999554;28;20064;-84
2023/10/29 04:29:43;;;;;;;4.72;1.70;;;12.70;99.90;;;;;;4995104;28;20127;-84
2023/10/29 04:32:09;;;;;;;4.07;1.83;;;12.70;99.90;;;;;;4988893;28;20047;-83
2023/10/29 04:34:34;;;;;;;5.20;1.70;;;12.70;99.90;;;;;;5002469;28;20262;-83
2023/10/29 04:37:00;;;;;;;4.63;1.70;;;12.70;99.90;;;;;;4990674;28;20113;-84
2023/10/29 04:39:26;;;;;;;4.25;1.80;;;12.80;99.90;;;;;;4997876;28;20057;-84
2023/10/29 04:41:51;;;;;;;4.38;1.60;;;12.80;99.90;;;;;;5002070;28;20059;-84
2023/10/29 04:44:17;;;;;;;6.07;2.20;;;12.80;99.90;;;;;;4998377;28;20073;-84
2023/10/29 04:46:43;;;;;;;5.25;1.85;;;12.90;99.90;;;;;;4986026;28;20123;-84
2023/10/29 04:49:08;;;;;;;4.32;1.40;;;12.80;99.90;;;;;;4997619;28;20073;-84
2023/10/29 04:51:34;;;;;;;3.40;1.35;;;12.90;99.90;;;;;;5009857;28;20137;-84
2023/10/29 04:54:00;;;;;;;4.78;1.50;;;12.90;99.90;;;;;;5102239;27;20051;-84
2023/10/29 04:56:26;;;;;;;4.50;1.50;;;12.90;99.90;;;;;;4989394;28;20053;-84
2023/10/29 04:58:52;;;;;;;3.47;1.30;;;12.90;99.90;;;;;;4990746;28;20078;-84
2023/10/29 05:01:18;;;;;;;6.15;1.50;;;12.80;99.90;;;;;;5000573;28;20037;-84
2023/10/29 05:03:44;;;;;;;4.30;1.73;;;12.90;99.90;;;;;;4989035;28;20163;-84
2023/10/29 05:06:20;;;;;;;4.63;1.50;;;12.80;99.90;;;;;;5007266;28;20049;-84
2023/10/29 05:08:46;;;;;;;5.35;1.70;;;12.90;99.90;;;;;;4997424;28;20219;-84
2023/10/29 05:11:12;;;;;;;4.32;1.40;;;12.90;99.90;;;;;;5001347;28;20057;-84
2023/10/29 05:13:38;;;;;;;3.28;1.60;;;12.90;99.90;;;;;;4994631;28;20057;-84
2023/10/29 05:16:04;;;;;;;3.38;1.17;;;12.90;99.90;;;;;;4988578;28;20050;-84
2023/10/29 05:18:30;;;;;;;2.50;1.20;;;12.90;99.90;;;;;;5093604;27;20140;-84
2023/10/29 05:20:56;;;;;;;3.78;1.30;;;12.90;99.90;;;;;;5015027;28;20090;-84
2023/10/29 05:23:21;;;;;;;3.92;1.42;;;12.90;99.90;;;;;;5013126;28;20049;-84
2023/10/29 05:25:47;;;;;;;2.72;1.17;;;12.90;99.90;;;;;;5100358;27;20054;-84
2023/10/29 05:28:13;;;;;;;3.22;1.40;;;12.90;99.90;;;;;;5008592;28;20042;-84
2023/10/29 05:30:39;;;;;;;2.85;1.23;;;12.90;99.90;;;;;;4992097;28;20050;-84
2023/10/29 05:33:05;;;;;;;4.53;1.40;;;12.90;99.90;;;;;;4991885;28;20074;-84
2023/10/29 05:35:30;;;;;;;5.57;1.23;;;12.90;99.90;;;;;;5002215;28;20050;-84
2023/10/29 05:37:56;;;;;;;3.58;1.27;;;12.90;99.90;;;;;;5104968;27;20038;-84
2023/10/29 05:40:22;;;;;;;2.90;1.20;;;12.80;99.90;;;;;;5009144;28;20408;-83
2023/10/29 05:42:47;;;;;;;4.72;1.33;;;12.90;99.90;;;;;;5012622;28;20046;-84
2023/10/29 05:45:13;;;;;;;3.40;1.10;;;12.90;99.90;;;;;;5001287;28;20068;-84
2023/10/29 05:47:39;;;;;;;2.97;1.52;;;12.80;99.90;;;;;;5005213;28;20066;-84
2023/10/29 05:50:06;;;;;;;2.92;1.30;;;12.80;99.90;;;;;;4993565;28;20137;-83
2023/10/29 05:52:32;;;;;;;3.22;1.20;;;12.80;99.90;;;;;;5009018;28;20042;-84
2023/10/29 05:55:00;;;;;;;3.67;1.27;;;12.80;99.90;;;;;;4997998;28;20058;-84
2023/10/29 05:57:26;;;;;;;4.88;1.25;;;12.80;99.90;;;;;;5011226;28;20099;-84
2023/10/29 05:59:51;;;;;;;2.53;1.05;;;12.80;99.90;;;;;;5010246;28;20081;-83
2023/10/29 06:02:17;;;;;;;3.05;1.30;;;12.80;99.90;;;;;;5009269;28;20124;-83
2023/10/29 06:04:43;;;;;;;4.80;1.55;;;12.80;99.90;;;;;;4995411;28;20100;-84
2023/10/29 06:07:09;;;;;;;2.92;1.33;;;12.80;99.90;;;;;;4998607;28;20564;-83
2023/10/29 06:09:34;;;;;;;1.73;1.10;;;12.80;99.90;;;;;;4992793;28;20042;-84
2023/10/29 06:12:00;;;;;;;5.00;1.20;;;12.80;99.90;;;;;;5012600;28;20049;-84
2023/10/29 06:14:26;;;;;;;3.08;1.10;;;12.80;99.90;;;;;;5002673;28;20038;-84
2023/10/29 06:16:56;;;;;;;2.85;1.08;;;12.90;99.90;;;;;;4992446;28;20041;-84
2023/10/29 06:19:24;;;;;;;3.10;1.20;;;12.90;99.90;;;;;;5002186;28;20123;-84
2023/10/29 06:21:51;;;;;;;4.53;1.08;;;12.90;99.90;;;;;;4987811;28;20050;-83
2023/10/29 06:24:17;;;;;;;3.78;1.63;;;12.90;99.90;;;;;;5015195;28;20473;-84
2023/10/29 06:26:43;;;;;;;2.95;1.10;;;12.90;99.90;;;;;;5000778;28;20466;-84
2023/10/29 06:29:08;;;;;;;3.50;1.08;;;12.90;99.90;;;;;;5000995;28;20068;-84
2023/10/29 06:31:35;;;;;;;3.85;1.23;;;12.90;99.90;;;;;;4999277;28;20050;-83
2023/10/29 06:34:01;;;;;;;3.10;1.20;;;12.90;99.90;;;;;;4998185;28;20538;-83
2023/10/29 06:36:28;;;;;;;4.43;1.40;;;12.90;99.90;;;;;;5004940;28;20129;-84
2023/10/29 06:38:55;;;;;;;3.78;1.52;;;12.90;99.90;;;;;;5002822;28;20487;-83
2023/10/29 06:41:20;;;;;;;2.60;1.48;;;12.90;99.90;;;;;;5012474;28;20054;-84
2023/10/29 06:43:47;;;;;;;3.33;1.35;;;12.90;99.90;;;;;;4990566;28;20042;-83
2023/10/29 06:46:15;;;;;;;2.38;1.27;;;12.90;99.90;;;;;;4995781;28;20041;-84
2023/10/29 06:48:41;;;;;;;3.13;1.50;;;12.90;99.90;;;;;;4988478;28;20088;-84
2023/10/29 06:51:11;;;;;;;3.20;1.50;;;12.80;99.90;;;;;;5010017;28;20110;-83
2023/10/29 06:53:39;;;;;;;2.22;1.20;;;12.80;99.90;;;;;;5000437;28;20308;-83
2023/10/29 06:56:06;;;;;;;4.15;1.65;;;12.80;99.90;;;;;;4999912;28;20049;-83
2023/10/29 06:58:32;;;;;;;3.85;1.63;;;12.80;99.90;;;;;;4996848;28;20046;-83
2023/10/29 07:01:09;;;;;;;4.25;1.20;;;12.80;99.90;;;;;;5003210;28;20049;-83
2023/10/29 07:03:35;;;;;;;3.95;1.23;;;12.80;99.90;;;;;;5011110;28;20045;-83
2023/10/29 07:06:09;;;;;;;2.78;1.10;;;12.80;99.90;;;;;;4991155;28;20061;-85
2023/10/29 07:08:35;;;;;;;4.53;1.13;;;12.80;99.90;;;;;;4996420;28;20665;-81
2023/10/29 07:11:04;;;;;;;3.27;1.10;;;12.90;99.90;;;;;;5002859;28;20428;-81
2023/10/29 07:13:31;;;;;;;2.33;1.00;;;12.90;99.90;;;;;;5012571;28;20050;-82
2023/10/29 07:15:59;;;;;;;2.83;0.90;;;12.90;99.90;;;;;;5007277;28;20037;-81
2023/10/29 07:18:25;;;;;;;2.65;1.20;;;13.00;99.90;;;;;;5013278;28;20044;-82
2023/10/29 07:20:52;;;;;;;4.28;1.02;;;13.00;99.90;;;;;;5107838;27;20055;-77
2023/10/29 07:23:18;;;;;;;2.72;1.30;;;13.00;99.90;;;;;;5013831;28;20082;-78
2023/10/29 07:25:44;;;;;;;4.72;2.10;;;13.00;99.90;;;;;;4999934;28;20126;-78
2023/10/29 07:28:10;;;;;;;4.75;1.40;;;13.00;99.90;;;;;;5001644;28;20109;-79
2023/10/29 07:30:36;;;;;;;2.80;1.02;;;13.00;99.90;;;;;;5012266;28;20534;-78
2023/10/29 07:33:01;;;;;;;4.32;1.30;;;13.00;99.90;;;;;;5005424;28;20054;-79
2023/10/29 07:35:27;;;;;;;2.35;1.08;;;13.10;99.90;;;;;;4992782;28;20508;-79
2023/10/29 07:37:52;;;;;;;3.17;1.00;;;13.10;99.90;;;;;;4988058;28;20439;-79
2023/10/29 07:40:18;;;;;;;3.53;1.05;;;13.10;99.90;;;;;;5091836;27;20698;-79
2023/10/29 07:42:44;;;;;;;6.72;1.35;;;13.20;99.90;;;;;;5005030;28;20400;-79
2023/10/29 07:45:10;;;;;;;5.80;1.20;;;13.20;99.90;;;;;;4995552;28;20061;-77
2023/10/29 07:47:36;;;;;;;3.25;1.10;;;13.20;99.90;;;;;;4998110;28;20057;-77
2023/10/29 07:50:02;;;;;;;5.53;1.00;;;13.30;99.90;;;;;;5010833;28;20053;-77
2023/10/29 07:52:28;;;;;;;4.38;1.00;;;13.30;99.90;;;;;;5012616;28;20038;-77
2023/10/29 07:54:53;;;;;;;4.63;1.10;;;13.30;99.90;;;;;;4999031;28;20048;-78
2023/10/29 07:57:20;;;;;;;2.95;0.95;;;13.30;99.90;;;;;;5000852;28;20075;-79
2023/10/29 07:59:46;;;;;;;4.05;1.15;;;13.30;99.90;;;;;;5004124;28;20211;-81
2023/10/29 08:02:12;;;;;;;5.10;1.20;;;13.30;99.90;;;;;;4999279;28;20401;-81
2023/10/29 08:04:38;;;;;;;4.22;1.40;;;13.40;99.90;;;;;;4995539;28;20050;-84
2023/10/29 08:07:04;;;;;;;3.45;0.98;;;13.40;99.90;;;;;;4995576;28;20112;-85
2023/10/29 08:09:29;;;;;;;5.75;1.10;;;13.40;99.90;;;;;;4987612;28;20046;-86
2023/10/29 08:11:55;;;;;;;2.95;0.90;;;13.40;99.90;;;;;;5038665;28;20161;-86
2023/10/29 08:14:20;;;;;;;3.92;0.95;;;13.40;99.90;;;;;;5016721;28;20059;-85
2023/10/29 08:16:46;;;;;;;5.38;1.08;;;13.50;99.90;;;;;;5008284;28;20050;-85
2023/10/29 08:19:12;;;;;;;4.15;0.95;;;13.50;99.90;;;;;;4986994;28;20053;-85
2023/10/29 08:21:37;;;;;;;3.67;0.98;;;13.50;99.90;;;;;;5001340;28;20470;-85
2023/10/29 08:24:04;;;;;;;4.18;0.90;;;13.60;99.90;;;;;;4996568;28;20047;-85
2023/10/29 08:26:31;;;;;;;4.45;1.17;;;13.60;99.90;;;;;;5097152;27;20052;-83
2023/10/29 08:28:57;;;;;;;4.38;1.42;;;13.60;99.90;;;;;;4992712;28;20095;-86
2023/10/29 08:31:22;;;;;;;3.78;0.90;;;13.60;99.90;;;;;;5014652;28;20046;-86
2023/10/29 08:33:49;;;;;;;5.25;1.00;;;13.60;99.90;;;;;;5010610;28;20047;-78
2023/10/29 08:36:18;;;;;;;4.93;0.98;;;13.60;99.90;;;;;;4986326;28;20451;-85
2023/10/29 08:38:44;;;;;;;2.90;0.80;;;13.60;99.90;;;;;;5004025;28;20047;-78
2023/10/29 08:41:17;;;;;;;3.97;0.93;;;13.60;99.90;;;;;;5000196;28;20046;-81
2023/10/29 08:43:44;;;;;;;5.50;1.25;;;13.60;99.90;;;;;;5007266;28;20125;-83
2023/10/29 08:46:10;;;;;;;6.10;1.40;;;13.60;99.90;;;;;;4989449;28;20042;-79
2023/10/29 08:48:36;;;;;;;5.80;1.20;;;13.60;99.90;;;;;;5013864;28;20053;-84
2023/10/29 08:51:01;;;;;;;7.45;1.20;;;13.60;99.90;;;;;;4990372;28;20058;-82
2023/10/29 08:53:27;;;;;;;6.18;1.08;;;13.70;99.90;;;;;;5096104;27;20057;-84
2023/10/29 08:55:52;;;;;;;6.00;1.20;;;13.70;99.90;;;;;;4988919;28;20052;-82
2023/10/29 08:58:20;;;;;;;5.25;1.10;;;13.70;99.90;;;;;;4995318;28;20508;-81
2023/10/29 09:00:46;;;;;;;5.25;1.15;;;13.70;99.90;;;;;;5000529;28;20054;-85
2023/10/29 09:03:15;;;;;;;4.40;1.25;;;13.70;99.90;;;;;;4996915;28;20053;-82
2023/10/29 09:05:42;;;;;;;6.50;1.60;;;13.80;99.90;;;;;;5090541;27;20068;-83
2023/10/29 09:08:08;;;;;;;8.50;1.40;;;13.80;99.90;;;;;;5012000;28;20061;-80
2023/10/29 09:10:33;;;;;;;7.15;1.25;;;13.80;99.90;;;;;;5008814;28;20034;-83
2023/10/29 09:12:59;;;;;;;5.95;1.30;;;13.80;99.90;;;;;;4991297;28;20180;-81
2023/10/29 09:15:25;;;;;;;6.63;1.40;;;13.80;99.90;;;;;;4997863;28;20038;-81
2023/10/29 09:17:52;;;;;;;6.80;1.73;;;13.80;99.90;;;;;;5004799;28;20133;-84
2023/10/29 09:20:18;;;;;;;7.25;1.40;;;13.90;99.90;;;;;;4988325;28;20054;-79
2023/10/29 09:22:43;;;;;;;7.22;1.80;;;13.90;99.90;;;;;;5009014;28;20069;-81
2023/10/29 09:25:09;;;;;;;7.47;1.50;;;14.00;99.90;;;;;;4995389;28;20042;-80
2023/10/29 09:27:35;;;;;;;6.30;1.50;;;14.00;99.90;;;;;;5002065;28;20407;-80
2023/10/29 09:30:01;;;;;;;7.68;2.20;;;14.00;99.90;;;;;;5025780;28;20115;-86
2023/10/29 09:32:26;;;;;;;7.95;1.80;;;14.10;99.90;;;;;;4989251;28;20053;-85
2023/10/29 09:34:52;;;;;;;7.05;1.40;;;14.10;99.90;;;;;;4989196;28;20039;-85
2023/10/29 09:37:18;;;;;;;8.15;1.85;;;14.00;99.90;;;;;;4996390;28;20049;-85
2023/10/29 09:39:44;;;;;;;8.63;1.45;;;14.00;99.90;;;;;;5015344;28;20048;-84
2023/10/29 09:42:11;;;;;;;9.70;1.75;;;14.00;99.90;;;;;;5010586;28;20040;-86
2023/10/29 09:44:43;;;;;;;6.15;1.90;;;14.00;99.90;;;;;;5009749;28;20511;-87
2023/10/29 09:47:20;;;;;;;8.45;1.55;;;14.00;99.90;;;;;;5002838;28;20406;-83
2023/10/29 09:49:46;;;;;;;;;;;14.00;99.90;;;;;;5004931;28;21037;-82
2023/10/29 09:52:13;;;;;;;7.63;1.48;;;14.00;99.90;;;;;;4989002;28;19922;-82
2023/10/29 09:54:40;;;;;;;6.40;1.50;;;14.00;99.90;;;;;;4986687;28;20712;-81
2023/10/29 09:57:06;;;;;;;8.07;1.75;;;14.00;99.90;;;;;;4994675;28;20403;-83
2023/10/29 09:59:32;;;;;;;8.23;1.50;;;14.10;99.90;;;;;;5002560;28;20052;-80
2023/10/29 10:01:58;;;;;;;7.55;1.50;;;14.20;99.90;;;;;;4995894;28;20084;-78
2023/10/29 10:04:24;;;;;;;5.90;1.50;;;14.30;99.90;;;;;;5011850;28;20096;-79
2023/10/29 10:06:51;;;;;;;5.93;1.48;;;14.40;99.90;;;;;;4988486;28;20046;-80
2023/10/29 10:09:17;;;;;;;5.80;1.67;;;14.40;99.90;;;;;;4995349;28;20121;-85
2023/10/29 10:11:43;;;;;;;9.38;1.67;;;14.30;99.90;;;;;;4999881;28;20128;-82
2023/10/29 10:14:25;;;;;;;5.05;1.70;;;14.30;99.90;;;;;;4996781;28;20095;-84
2023/10/29 10:17:09;;;;;;;7.80;1.60;;;14.20;99.90;;;;;;4994621;28;20060;-79
2023/10/29 10:19:35;;;;;;;8.95;1.88;;;14.20;99.90;;;;;;5090045;27;20042;-89
2023/10/29 10:22:03;;;;;;;7.40;1.65;;;14.20;99.90;;;;;;5013186;28;20055;-87
2023/10/29 10:24:39;;;;;;;6.15;1.52;;;14.20;99.90;;;;;;4989748;28;20046;-84
2023/10/29 10:27:05;;;;;;;9.90;1.88;;;14.20;99.90;;;;;;4996981;28;20064;-87
2023/10/29 10:29:32;;;;;;;7.27;1.73;;;14.20;99.90;;;;;;4996567;28;20054;-87
2023/10/29 10:32:05;;;;;;;7.17;1.70;;;14.20;99.90;;;;;;5001968;28;20424;-89
2023/10/29 10:34:34;;;;;;;9.98;1.70;;;14.30;99.90;;;;;;4996761;28;20542;-88
2023/10/29 10:37:04;;;;;;;8.48;1.70;;;14.40;99.90;;;;;;5001924;28;20046;-87
2023/10/29 10:39:31;;;;;;;8.55;2.08;;;14.40;99.90;;;;;;5004449;28;20109;-85
2023/10/29 10:41:59;;;;;;;11.10;1.65;;;14.50;99.90;;;;;;4994302;28;20042;-86
2023/10/29 10:44:29;;;;;;;9.27;1.90;;;14.50;99.90;;;;;;4990887;28;20104;-86
2023/10/29 10:46:57;;;;;;;8.93;2.03;;;14.60;99.90;;;;;;4986827;28;20051;-85
2023/10/29 10:49:23;;;;;;;6.70;2.00;;;14.60;99.90;;;;;;4996682;28;20077;-87
2023/10/29 10:51:54;;;;;;;7.13;1.75;;;14.60;99.90;;;;;;4997551;28;20086;-88
2023/10/29 10:54:20;;;;;;;7.45;1.88;;;14.60;99.90;;;;;;4996639;28;20053;-89
2023/10/29 10:56:48;;;;;;;8.13;1.80;;;14.60;99.90;;;;;;4997586;28;20425;-79
2023/10/29 10:59:13;;;;;;;;;;;14.70;99.90;;;;;;5006477;28;20599;-78
2023/10/29 11:01:40;;;;;;;7.95;1.88;;;14.70;99.90;;;;;;5000885;28;19932;-84
2023/10/29 11:04:08;;;;;;;7.87;1.90;;;14.70;99.90;;;;;;4997601;28;20049;-79
2023/10/29 11:06:35;;;;;;;4.90;1.30;;;14.60;99.90;;;;;;5006079;28;20702;-83
2023/10/29 11:09:01;;;;;;;6.93;1.77;;;14.60;99.90;;;;;;4992990;28;20053;-79
2023/10/29 11:11:35;;;;;;;9.63;1.60;;;14.60;99.90;;;;;;4996841;28;20074;-80
2023/10/29 11:14:14;;;;;;;8.05;1.60;;;14.60;99.90;;;;;;5001484;28;20094;-87
2023/10/29 11:16:57;;;;;;;8.25;1.80;;;14.60;99.90;;;;;;5014863;28;20041;-86
2023/10/29 11:19:35;;;;;;;9.88;2.22;;;14.60;99.90;;;;;;4981879;28;20057;-89
2023/10/29 11:22:20;;;;;;;9.27;1.42;;;14.60;99.90;;;;;;4987557;28;20537;-87
2023/10/29 11:25:08;;;;;;;8.40;1.40;;;14.60;99.90;;;;;;4986613;28;20098;-85
2023/10/29 11:27:38;;;;;;;6.13;1.58;;;14.70;99.90;;;;;;4989040;28;20080;-88
2023/10/29 11:30:14;;;;;;;6.78;1.50;;;14.70;99.90;;;;;;5000238;28;20051;-88
2023/10/29 11:32:41;;;;;;;6.00;1.35;;;14.80;99.90;;;;;;5032137;28;20131;-88
2023/10/29 11:35:22;;;;;;;8.23;1.80;;;14.80;99.90;;;;;;5028202;28;20057;-87
2023/10/29 11:37:52;;;;;;;6.75;1.50;;;14.90;99.90;;;;;;5098329;27;20070;-86
2023/10/29 11:40:23;;;;;;;6.75;1.50;;;14.90;99.90;;;;;;5001004;28;20489;-87
2023/10/29 11:42:53;;;;;;;5.82;1.65;;;14.90;99.90;;;;;;4990460;28;20412;-85
2023/10/29 11:45:28;;;;;;;5.97;1.60;;;14.90;99.90;;;;;;5011948;28;20128;-85
2023/10/29 11:48:10;;;;;;;7.13;1.48;;;15.00;99.90;;;;;;5000214;28;20068;-86
2023/10/29 11:50:36;;;;;;;6.60;1.27;;;15.00;99.90;;;;;;5015577;28;20049;-88
2023/10/29 11:53:02;;;;;;;7.53;1.63;;;15.10;99.90;;;;;;4998855;28;20057;-86
2023/10/29 11:55:34;;;;;;;6.53;1.17;;;15.10;99.90;;;;;;4985591;28;20069;-84
2023/10/29 11:58:00;;;;;;;6.43;1.55;;;15.20;99.90;;;;;;4993431;28;20050;-87
2023/10/29 12:00:42;;;;;;;5.68;1.42;;;15.10;99.90;;;;;;4999287;28;20145;-87
2023/10/29 12:03:14;;;;;;;5.57;1.63;;;15.20;99.90;;;;;;4986563;28;20436;-86
2023/10/29 12:05:40;;;;;;;7.75;1.30;;;15.10;99.90;;;;;;5002309;28;20072;-88
2023/10/29 12:08:06;;;;;;;5.67;1.40;;;15.10;99.90;;;;;;4986056;28;20054;-85
2023/10/29 12:10:31;;;;;;;7.38;2.47;;;15.10;99.90;;;;;;4998618;28;20317;-87
2023/10/29 12:12:57;;;;;;;5.28;1.40;;;15.10;99.90;;;;;;5007921;28;20034;-82
2023/10/29 12:15:24;;;;;;;8.02;1.80;;;15.10;99.90;;;;;;4999750;28;20075;-83
2023/10/29 12:17:50;;;;;;;8.18;1.90;;;15.00;99.90;;;;;;5090141;27;20107;-80
2023/10/29 12:20:28;;;;;;;6.40;1.45;;;15.00;99.90;;;;;;4991605;28;20046;-78
2023/10/29 12:22:58;;;;;;;5.75;1.35;;;15.00;99.90;;;;;;5002051;28;20057;-79
2023/10/29 12:25:25;;;;;;;7.22;1.40;;;15.00;99.90;;;;;;4997556;28;20663;-79
2023/10/29 12:27:51;;;;;;;7.00;1.30;;;14.90;99.90;;;;;;4989910;28;20050;-78
2023/10/29 12:30:40;;;;;;;5.63;1.33;;;15.00;99.90;;;;;;5008677;28;20053;-78
2023/10/29 12:33:26;;;;;;;7.45;1.80;;;14.90;99.90;;;;;;4989871;28;20133;-80
2023/10/29 12:35:56;;;;;;;9.55;1.65;;;14.90;99.90;;;;;;4992988;28;20594;-81
2023/10/29 12:38:23;;;;;;;8.63;1.50;;;14.90;99.90;;;;;;5009794;28;20518;-80
2023/10/29 12:41:08;;;;;;;8.77;1.85;;;14.90;99.90;;;;;;4988383;28;20051;-83
2023/10/29 12:43:40;;;;;;;7.00;1.92;;;14.80;99.90;;;;;;5002892;28;20425;-80
2023/10/29 12:46:18;;;;;;;12.05;1.75;;;14.80;99.90;;;;;;4993909;28;20069;-79
2023/10/29 12:48:59;;;;;;;11.07;2.20;;;14.80;99.90;;;;;;4997465;28;20144;-77